KANB

Anniston Regional Airport

Anniston, Alabama, USA
METAR KANB 161553Z AUTO 23004KT 10SM CLR 06/01 A3024 RMK AO2 SLP249 T00560011
Observed Flight Rules
Nov-16 @ 15:53 UTC (53 minutes ago) Visual Flight Rules
Wind Visibility Clouds
230° at 4 knots 10 miles
  • Clear skies
Temperatures Readings
Current 6°C / 43°F
Dewpoint 1°C / 34°F
Humidity 71%
Altimeter 30.24" Hg
Pressure 1024.9 hPa
Elevation 183
METAR KANB 161553Z AUTO 23004KT 10SM CLR 06/01 A3024 RMK AO2 SLP249 T00560011
Observed Flight Rules
Nov-16 @ 15:53 UTC
(53 minutes ago)
VFR
Wind Visibility
230° at 4 knots 10 miles
Clouds
  • Clear skies
Temperature Dewpoint
6°C / 43°F 1°C / 34°F
Humidity Altimeter Pressure
71% 30.24" Hg 1024.9 hPa